<?xml version="1.0" encoding="UTF-8" standalone="no" ?>
<gpx xmlns="http://www.topografix.com/GPX/1/1" xmlns:xsi="http://www.w3.org/2001/XMLSchema-instance" xsi:schemaLocation="http://www.topografix.com/GPX/1/1 http://www.topografix.com/GPX/1/1/gpx.xsd" version="1.1" creator="VisuGPX - https://www.visugpx.com">
  <metadata>
    <name>Chialvetta - Preit : 10 juil. 2020 08:58:20</name>
    <desc><![CDATA[Un tour dans le VAL MAIRA 2020 : Etape 2 en passant par le col de soleglioblue et la Rocca delle sommette]]></desc>
  </metadata>
  <trk>
    <name><![CDATA[Chialvetta - Preit : 10 juil. 2020 08:58:20]]></name>
    <trkseg>
      <trkpt lat="44.44965" lon="7.00051">
        <ele>1471.0020304</ele>
        <time>2020-07-10T06:58:20Z</time>
      </trkpt>
      <trkpt lat="44.44942" lon="7.00102">
        <ele>1473.00407888</ele>
        <time>2020-07-10T07:00:58Z</time>
      </trkpt>
      <trkpt lat="44.44903" lon="7.0012">
        <ele>1486.00481196</ele>
        <time>2020-07-10T07:02:51Z</time>
      </trkpt>
      <trkpt lat="44.44866" lon="7.00088">
        <ele>1495.00351648</ele>
        <time>2020-07-10T07:04:24Z</time>
      </trkpt>
      <trkpt lat="44.44825" lon="7.00067">
        <ele>1508.0026632</ele>
        <time>2020-07-10T07:05:56Z</time>
      </trkpt>
      <trkpt lat="44.44781" lon="7.00057">
        <ele>1521.00225932</ele>
        <time>2020-07-10T07:07:14Z</time>
      </trkpt>
      <trkpt lat="44.44741" lon="7.00085">
        <ele>1546.0033818</ele>
        <time>2020-07-10T07:10:39Z</time>
      </trkpt>
      <trkpt lat="44.44699" lon="7.00103">
        <ele>1567.0041086</ele>
        <time>2020-07-10T07:13:39Z</time>
      </trkpt>
      <trkpt lat="44.44659" lon="7.00081">
        <ele>1578.00322228</ele>
        <time>2020-07-10T07:15:21Z</time>
      </trkpt>
      <trkpt lat="44.44615" lon="7.0007">
        <ele>1595.00279688</ele>
        <time>2020-07-10T07:17:36Z</time>
      </trkpt>
      <trkpt lat="44.44574" lon="7.00051">
        <ele>1614.00203408</ele>
        <time>2020-07-10T07:20:01Z</time>
      </trkpt>
      <trkpt lat="44.44536" lon="7.00016">
        <ele>1618.00065748</ele>
        <time>2020-07-10T07:21:27Z</time>
      </trkpt>
      <trkpt lat="44.445" lon="6.9998">
        <ele>1627</ele>
        <time>2020-07-10T07:23:03Z</time>
      </trkpt>
      <trkpt lat="44.44456" lon="6.99969">
        <ele>1645</ele>
        <time>2020-07-10T07:25:17Z</time>
      </trkpt>
      <trkpt lat="44.44422" lon="6.99928">
        <ele>1662</ele>
        <time>2020-07-10T07:27:06Z</time>
      </trkpt>
      <trkpt lat="44.44397" lon="6.9998">
        <ele>1679</ele>
        <time>2020-07-10T07:30:28Z</time>
      </trkpt>
      <trkpt lat="44.44393" lon="7.00042">
        <ele>1693.00168432</ele>
        <time>2020-07-10T07:32:37Z</time>
      </trkpt>
      <trkpt lat="44.4441" lon="7.00099">
        <ele>1716.003955</ele>
        <time>2020-07-10T07:35:18Z</time>
      </trkpt>
      <trkpt lat="44.44383" lon="7.00148">
        <ele>1711.00589868</ele>
        <time>2020-07-10T07:37:23Z</time>
      </trkpt>
      <trkpt lat="44.44346" lon="7.00181">
        <ele>1726.00722172</ele>
        <time>2020-07-10T07:38:13Z</time>
      </trkpt>
      <trkpt lat="44.44314" lon="7.00224">
        <ele>1747.00895328</ele>
        <time>2020-07-10T07:40:20Z</time>
      </trkpt>
      <trkpt lat="44.44305" lon="7.00285">
        <ele>1761.01141692</ele>
        <time>2020-07-10T07:41:45Z</time>
      </trkpt>
      <trkpt lat="44.44292" lon="7.00346">
        <ele>1773.01383248</ele>
        <time>2020-07-10T07:43:15Z</time>
      </trkpt>
      <trkpt lat="44.44305" lon="7.00406">
        <ele>1789.01624616</ele>
        <time>2020-07-10T07:45:13Z</time>
      </trkpt>
      <trkpt lat="44.44346" lon="7.00428">
        <ele>1798.017138</ele>
        <time>2020-07-10T07:47:06Z</time>
      </trkpt>
      <trkpt lat="44.44335" lon="7.00489">
        <ele>1815.01954768</ele>
        <time>2020-07-10T07:52:42Z</time>
      </trkpt>
      <trkpt lat="44.4438" lon="7.00594">
        <ele>1839.02375632</ele>
        <time>2020-07-10T07:55:04Z</time>
      </trkpt>
      <trkpt lat="44.44354" lon="7.00645">
        <ele>1842.02579636</ele>
        <time>2020-07-10T08:05:33Z</time>
      </trkpt>
      <trkpt lat="44.44364" lon="7.00768">
        <ele>1855.03071152</ele>
        <time>2020-07-10T08:07:46Z</time>
      </trkpt>
      <trkpt lat="44.44351" lon="7.00827">
        <ele>1879.03309552</ele>
        <time>2020-07-10T08:09:52Z</time>
      </trkpt>
      <trkpt lat="44.4431" lon="7.00851">
        <ele>1889.03404204</ele>
        <time>2020-07-10T08:11:11Z</time>
      </trkpt>
      <trkpt lat="44.44269" lon="7.00875">
        <ele>1888.03501388</ele>
        <time>2020-07-10T08:12:37Z</time>
      </trkpt>
      <trkpt lat="44.4424" lon="7.00922">
        <ele>1885.03688544</ele>
        <time>2020-07-10T08:13:23Z</time>
      </trkpt>
      <trkpt lat="44.44207" lon="7.00964">
        <ele>1892.03854688</ele>
        <time>2020-07-10T08:14:19Z</time>
      </trkpt>
      <trkpt lat="44.44165" lon="7.00984">
        <ele>1892.03933924</ele>
        <time>2020-07-10T08:15:18Z</time>
      </trkpt>
      <trkpt lat="44.44123" lon="7.01004">
        <ele>1901.040178</ele>
        <time>2020-07-10T08:16:45Z</time>
      </trkpt>
      <trkpt lat="44.44081" lon="7.01025">
        <ele>1903.04098836</ele>
        <time>2020-07-10T08:18:15Z</time>
      </trkpt>
      <trkpt lat="44.44047" lon="7.01066">
        <ele>1914.04263776</ele>
        <time>2020-07-10T08:19:49Z</time>
      </trkpt>
      <trkpt lat="44.44013" lon="7.01106">
        <ele>1929.04421952</ele>
        <time>2020-07-10T08:21:19Z</time>
      </trkpt>
      <trkpt lat="44.43986" lon="7.01156">
        <ele>1930.04623848</ele>
        <time>2020-07-10T08:22:20Z</time>
      </trkpt>
      <trkpt lat="44.43956" lon="7.012">
        <ele>1943.0480102</ele>
        <time>2020-07-10T08:26:34Z</time>
      </trkpt>
      <trkpt lat="44.43917" lon="7.0123">
        <ele>1945.04918892</ele>
        <time>2020-07-10T08:27:24Z</time>
      </trkpt>
      <trkpt lat="44.43879" lon="7.01263">
        <ele>1946.05051136</ele>
        <time>2020-07-10T08:28:39Z</time>
      </trkpt>
      <trkpt lat="44.43862" lon="7.01321">
        <ele>1947.05284008</ele>
        <time>2020-07-10T08:30:23Z</time>
      </trkpt>
      <trkpt lat="44.43866" lon="7.01382">
        <ele>1959.05529484</ele>
        <time>2020-07-10T08:31:29Z</time>
      </trkpt>
      <trkpt lat="44.43901" lon="7.01421">
        <ele>1969.05683684</ele>
        <time>2020-07-10T08:33:48Z</time>
      </trkpt>
      <trkpt lat="44.43906" lon="7.01483">
        <ele>1978.0593274</ele>
        <time>2020-07-10T08:35:38Z</time>
      </trkpt>
      <trkpt lat="44.4391" lon="7.01544">
        <ele>1993.0617424</ele>
        <time>2020-07-10T08:37:30Z</time>
      </trkpt>
      <trkpt lat="44.43938" lon="7.01593">
        <ele>2009.06369996</ele>
        <time>2020-07-10T08:39:53Z</time>
      </trkpt>
      <trkpt lat="44.43956" lon="7.01649">
        <ele>2027.065966</ele>
        <time>2020-07-10T08:42:31Z</time>
      </trkpt>
      <trkpt lat="44.43997" lon="7.0166">
        <ele>2046.06640624</ele>
        <time>2020-07-10T08:46:01Z</time>
      </trkpt>
      <trkpt lat="44.4404" lon="7.01671">
        <ele>2068.06684532</ele>
        <time>2020-07-10T08:48:42Z</time>
      </trkpt>
      <trkpt lat="44.44057" lon="7.01728">
        <ele>2078.06912396</ele>
        <time>2020-07-10T08:50:40Z</time>
      </trkpt>
      <trkpt lat="44.4406" lon="7.01789">
        <ele>2085.07155144</ele>
        <time>2020-07-10T08:52:29Z</time>
      </trkpt>
      <trkpt lat="44.44079" lon="7.01846">
        <ele>2115.0738304</ele>
        <time>2020-07-10T08:55:42Z</time>
      </trkpt>
      <trkpt lat="44.44076" lon="7.01908">
        <ele>2127.07630568</ele>
        <time>2020-07-10T08:58:33Z</time>
      </trkpt>
      <trkpt lat="44.44103" lon="7.01957">
        <ele>2151.0782744</ele>
        <time>2020-07-10T09:00:17Z</time>
      </trkpt>
      <trkpt lat="44.44132" lon="7.02004">
        <ele>2165.0801756</ele>
        <time>2020-07-10T09:01:57Z</time>
      </trkpt>
      <trkpt lat="44.44136" lon="7.02067">
        <ele>2169.08266264</ele>
        <time>2020-07-10T09:03:06Z</time>
      </trkpt>
      <trkpt lat="44.44151" lon="7.0212">
        <ele>2172.08480588</ele>
        <time>2020-07-10T09:06:52Z</time>
      </trkpt>
      <trkpt lat="44.44149" lon="7.02183">
        <ele>2177.08730424</ele>
        <time>2020-07-10T09:24:28Z</time>
      </trkpt>
      <trkpt lat="44.44112" lon="7.02214">
        <ele>2181.08856036</ele>
        <time>2020-07-10T09:25:36Z</time>
      </trkpt>
      <trkpt lat="44.44133" lon="7.02269">
        <ele>2195.09076232</ele>
        <time>2020-07-10T09:27:00Z</time>
      </trkpt>
      <trkpt lat="44.44137" lon="7.02331">
        <ele>2200.09325004</ele>
        <time>2020-07-10T09:28:15Z</time>
      </trkpt>
      <trkpt lat="44.44138" lon="7.02394">
        <ele>2223.09575928</ele>
        <time>2020-07-10T09:30:55Z</time>
      </trkpt>
      <trkpt lat="44.44112" lon="7.02444">
        <ele>2234.0977694</ele>
        <time>2020-07-10T09:32:28Z</time>
      </trkpt>
      <trkpt lat="44.44087" lon="7.02494">
        <ele>2238.09976944</ele>
        <time>2020-07-10T09:34:16Z</time>
      </trkpt>
      <trkpt lat="44.44068" lon="7.02551">
        <ele>2252.102023</ele>
        <time>2020-07-10T09:36:01Z</time>
      </trkpt>
      <trkpt lat="44.44039" lon="7.02596">
        <ele>2273.10383752</ele>
        <time>2020-07-10T09:38:05Z</time>
      </trkpt>
      <trkpt lat="44.44021" lon="7.02649">
        <ele>2281.10597496</ele>
        <time>2020-07-10T09:42:08Z</time>
      </trkpt>
      <trkpt lat="44.43997" lon="7.02702">
        <ele>2286.10806572</ele>
        <time>2020-07-10T09:42:45Z</time>
      </trkpt>
      <trkpt lat="44.4398" lon="7.02759">
        <ele>2290.11034084</ele>
        <time>2020-07-10T09:43:37Z</time>
      </trkpt>
      <trkpt lat="44.43967" lon="7.02819">
        <ele>2294.11274224</ele>
        <time>2020-07-10T09:44:40Z</time>
      </trkpt>
      <trkpt lat="44.43949" lon="7.02876">
        <ele>2302.1150552</ele>
        <time>2020-07-10T09:45:46Z</time>
      </trkpt>
      <trkpt lat="44.43933" lon="7.02935">
        <ele>2311.11738608</ele>
        <time>2020-07-10T09:47:41Z</time>
      </trkpt>
      <trkpt lat="44.4394" lon="7.02997">
        <ele>2311.11986132</ele>
        <time>2020-07-10T09:48:31Z</time>
      </trkpt>
      <trkpt lat="44.43921" lon="7.03053">
        <ele>2324.12213464</ele>
        <time>2020-07-10T09:50:04Z</time>
      </trkpt>
      <trkpt lat="44.43899" lon="7.03106">
        <ele>2337.12424672</ele>
        <time>2020-07-10T09:52:10Z</time>
      </trkpt>
      <trkpt lat="44.43908" lon="7.03166">
        <ele>2338.12665112</ele>
        <time>2020-07-10T10:09:25Z</time>
      </trkpt>
      <trkpt lat="44.4393" lon="7.03221">
        <ele>2347.12882692</ele>
        <time>2020-07-10T10:10:34Z</time>
      </trkpt>
      <trkpt lat="44.43939" lon="7.03281">
        <ele>2354.13125136</ele>
        <time>2020-07-10T10:12:02Z</time>
      </trkpt>
      <trkpt lat="44.43945" lon="7.03343">
        <ele>2377.13372236</ele>
        <time>2020-07-10T10:14:30Z</time>
      </trkpt>
      <trkpt lat="44.43979" lon="7.03383">
        <ele>2386.13533144</ele>
        <time>2020-07-10T10:21:57Z</time>
      </trkpt>
      <trkpt lat="44.44059" lon="7.03439">
        <ele>2439.13757592</ele>
        <time>2020-07-10T10:26:04Z</time>
      </trkpt>
      <trkpt lat="44.44101" lon="7.03454">
        <ele>2445.13816572</ele>
        <time>2020-07-10T10:30:58Z</time>
      </trkpt>
      <trkpt lat="44.44145" lon="7.03468">
        <ele>2450.13871464</ele>
        <time>2020-07-10T10:32:00Z</time>
      </trkpt>
      <trkpt lat="44.44181" lon="7.03503">
        <ele>2457.14012404</ele>
        <time>2020-07-10T10:33:05Z</time>
      </trkpt>
      <trkpt lat="44.44208" lon="7.03554">
        <ele>2470.14214588</ele>
        <time>2020-07-10T10:34:22Z</time>
      </trkpt>
      <trkpt lat="44.44185" lon="7.03499">
        <ele>2463.1399702</ele>
        <time>2020-07-10T10:46:20Z</time>
      </trkpt>
      <trkpt lat="44.44147" lon="7.03468">
        <ele>2444.13871892</ele>
        <time>2020-07-10T10:47:37Z</time>
      </trkpt>
      <trkpt lat="44.44106" lon="7.03444">
        <ele>2441.1377634</ele>
        <time>2020-07-10T10:48:22Z</time>
      </trkpt>
      <trkpt lat="44.44063" lon="7.03428">
        <ele>2431.13711748</ele>
        <time>2020-07-10T10:49:14Z</time>
      </trkpt>
      <trkpt lat="44.4402" lon="7.03409">
        <ele>2413.13635028</ele>
        <time>2020-07-10T10:50:17Z</time>
      </trkpt>
      <trkpt lat="44.43981" lon="7.03379">
        <ele>2393.13517244</ele>
        <time>2020-07-10T10:51:46Z</time>
      </trkpt>
      <trkpt lat="44.43951" lon="7.03334">
        <ele>2375.1333542</ele>
        <time>2020-07-10T10:52:54Z</time>
      </trkpt>
      <trkpt lat="44.43949" lon="7.03272">
        <ele>2358.130866</ele>
        <time>2020-07-10T10:53:50Z</time>
      </trkpt>
      <trkpt lat="44.43926" lon="7.03219">
        <ele>2348.12874652</ele>
        <time>2020-07-10T10:54:39Z</time>
      </trkpt>
      <trkpt lat="44.43916" lon="7.03159">
        <ele>2345.12634572</ele>
        <time>2020-07-10T10:55:24Z</time>
      </trkpt>
      <trkpt lat="44.43882" lon="7.03117">
        <ele>2333.12467536</ele>
        <time>2020-07-10T10:56:56Z</time>
      </trkpt>
      <trkpt lat="44.43848" lon="7.03078">
        <ele>2318.12310664</ele>
        <time>2020-07-10T11:33:28Z</time>
      </trkpt>
      <trkpt lat="44.43803" lon="7.03074">
        <ele>2308.1229446</ele>
        <time>2020-07-10T11:34:31Z</time>
      </trkpt>
      <trkpt lat="44.43777" lon="7.03123">
        <ele>2287.12492724</ele>
        <time>2020-07-10T11:35:24Z</time>
      </trkpt>
      <trkpt lat="44.43745" lon="7.03167">
        <ele>2268.12669688</ele>
        <time>2020-07-10T11:36:24Z</time>
      </trkpt>
      <trkpt lat="44.43704" lon="7.0314">
        <ele>2261.1256056</ele>
        <time>2020-07-10T11:37:37Z</time>
      </trkpt>
      <trkpt lat="44.43668" lon="7.03104">
        <ele>2256.12415612</ele>
        <time>2020-07-10T11:38:29Z</time>
      </trkpt>
      <trkpt lat="44.43636" lon="7.03147">
        <ele>2245.12587508</ele>
        <time>2020-07-10T11:40:17Z</time>
      </trkpt>
      <trkpt lat="44.4364" lon="7.03208">
        <ele>2237.1283352</ele>
        <time>2020-07-10T11:41:09Z</time>
      </trkpt>
      <trkpt lat="44.43638" lon="7.03271">
        <ele>2231.13082608</ele>
        <time>2020-07-10T11:41:49Z</time>
      </trkpt>
      <trkpt lat="44.43634" lon="7.03332">
        <ele>2222.1332794</ele>
        <time>2020-07-10T11:42:39Z</time>
      </trkpt>
      <trkpt lat="44.43607" lon="7.03381">
        <ele>2207.13525636</ele>
        <time>2020-07-10T11:43:49Z</time>
      </trkpt>
      <trkpt lat="44.43571" lon="7.03419">
        <ele>2191.13675572</ele>
        <time>2020-07-10T11:45:36Z</time>
      </trkpt>
      <trkpt lat="44.43539" lon="7.03375">
        <ele>2177.13500752</ele>
        <time>2020-07-10T11:46:28Z</time>
      </trkpt>
      <trkpt lat="44.43512" lon="7.03424">
        <ele>2160.13697144</ele>
        <time>2020-07-10T11:48:03Z</time>
      </trkpt>
      <trkpt lat="44.43515" lon="7.03486">
        <ele>2149.13945632</ele>
        <time>2020-07-10T11:48:59Z</time>
      </trkpt>
      <trkpt lat="44.43525" lon="7.03547">
        <ele>2132.14189792</ele>
        <time>2020-07-10T11:50:18Z</time>
      </trkpt>
      <trkpt lat="44.4352" lon="7.0361">
        <ele>2122.14438488</ele>
        <time>2020-07-10T11:51:15Z</time>
      </trkpt>
      <trkpt lat="44.43513" lon="7.03672">
        <ele>2116.14686836</ele>
        <time>2020-07-10T11:52:11Z</time>
      </trkpt>
      <trkpt lat="44.43512" lon="7.03734">
        <ele>2112.14935668</ele>
        <time>2020-07-10T11:53:00Z</time>
      </trkpt>
      <trkpt lat="44.43503" lon="7.03794">
        <ele>2101.15175868</ele>
        <time>2020-07-10T11:54:30Z</time>
      </trkpt>
      <trkpt lat="44.43483" lon="7.0385">
        <ele>2088.15400924</ele>
        <time>2020-07-10T11:55:29Z</time>
      </trkpt>
      <trkpt lat="44.43443" lon="7.03824">
        <ele>2074.1529736</ele>
        <time>2020-07-10T11:56:48Z</time>
      </trkpt>
      <trkpt lat="44.43418" lon="7.03773">
        <ele>2062.15092968</ele>
        <time>2020-07-10T11:57:40Z</time>
      </trkpt>
      <trkpt lat="44.43387" lon="7.03816">
        <ele>2048.15262744</ele>
        <time>2020-07-10T11:58:49Z</time>
      </trkpt>
      <trkpt lat="44.43348" lon="7.03844">
        <ele>2027.15373832</ele>
        <time>2020-07-10T11:59:59Z</time>
      </trkpt>
      <trkpt lat="44.43348" lon="7.03905">
        <ele>2017.15618716</ele>
        <time>2020-07-10T12:01:11Z</time>
      </trkpt>
      <trkpt lat="44.43368" lon="7.0396">
        <ele>2013.158418</ele>
        <time>2020-07-10T12:01:46Z</time>
      </trkpt>
      <trkpt lat="44.43378" lon="7.0402">
        <ele>2007.16080052</ele>
        <time>2020-07-10T12:02:21Z</time>
      </trkpt>
      <trkpt lat="44.43385" lon="7.04081">
        <ele>2004.16324408</ele>
        <time>2020-07-10T12:02:57Z</time>
      </trkpt>
      <trkpt lat="44.43403" lon="7.04138">
        <ele>2000.16553424</ele>
        <time>2020-07-10T12:03:34Z</time>
      </trkpt>
      <trkpt lat="44.43426" lon="7.0419">
        <ele>1999.16758972</ele>
        <time>2020-07-10T12:04:08Z</time>
      </trkpt>
      <trkpt lat="44.4346" lon="7.04227">
        <ele>1985.16909172</ele>
        <time>2020-07-10T12:11:17Z</time>
      </trkpt>
      <trkpt lat="44.43461" lon="7.04289">
        <ele>1976.17156492</ele>
        <time>2020-07-10T12:12:13Z</time>
      </trkpt>
      <trkpt lat="44.43477" lon="7.04347">
        <ele>1962.17389424</ele>
        <time>2020-07-10T12:13:28Z</time>
      </trkpt>
      <trkpt lat="44.43457" lon="7.04402">
        <ele>1950.17608448</ele>
        <time>2020-07-10T12:14:27Z</time>
      </trkpt>
      <trkpt lat="44.43432" lon="7.04455">
        <ele>1937.17818648</ele>
        <time>2020-07-10T12:15:23Z</time>
      </trkpt>
      <trkpt lat="44.43426" lon="7.04516">
        <ele>1917.180632</ele>
        <time>2020-07-10T12:16:56Z</time>
      </trkpt>
      <trkpt lat="44.43412" lon="7.04575">
        <ele>1893.18299088</ele>
        <time>2020-07-10T12:19:02Z</time>
      </trkpt>
      <trkpt lat="44.43379" lon="7.04617">
        <ele>1884.18466552</ele>
        <time>2020-07-10T12:20:10Z</time>
      </trkpt>
      <trkpt lat="44.43403" lon="7.04668">
        <ele>1868.18672456</ele>
        <time>2020-07-10T12:22:25Z</time>
      </trkpt>
      <trkpt lat="44.43413" lon="7.04729">
        <ele>1847.1891448</ele>
        <time>2020-07-10T12:23:31Z</time>
      </trkpt>
      <trkpt lat="44.43419" lon="7.0479">
        <ele>1830.19160508</ele>
        <time>2020-07-10T12:24:58Z</time>
      </trkpt>
      <trkpt lat="44.43442" lon="7.04843">
        <ele>1806.19371448</ele>
        <time>2020-07-10T12:26:13Z</time>
      </trkpt>
      <trkpt lat="44.4344" lon="7.04906">
        <ele>1780.19621824</ele>
        <time>2020-07-10T12:28:03Z</time>
      </trkpt>
      <trkpt lat="44.43479" lon="7.04933">
        <ele>1763.19733736</ele>
        <time>2020-07-10T12:28:52Z</time>
      </trkpt>
      <trkpt lat="44.43492" lon="7.04993">
        <ele>1743.19971872</ele>
        <time>2020-07-10T12:30:19Z</time>
      </trkpt>
      <trkpt lat="44.43448" lon="7.05006">
        <ele>1725.20025548</ele>
        <time>2020-07-10T12:32:07Z</time>
      </trkpt>
      <trkpt lat="44.4336" lon="7.0501">
        <ele>1704.20040508</ele>
        <time>2020-07-10T12:33:45Z</time>
      </trkpt>
      <trkpt lat="44.43391" lon="7.05055">
        <ele>1677.20221628</ele>
        <time>2020-07-10T12:40:02Z</time>
      </trkpt>
      <trkpt lat="44.43355" lon="7.05091">
        <ele>1658.20362572</ele>
        <time>2020-07-10T12:42:07Z</time>
      </trkpt>
      <trkpt lat="44.43383" lon="7.05138">
        <ele>1633.20550876</ele>
        <time>2020-07-10T12:43:49Z</time>
      </trkpt>
      <trkpt lat="44.43424" lon="7.05157">
        <ele>1629.20626904</ele>
        <time>2020-07-10T12:44:36Z</time>
      </trkpt>
      <trkpt lat="44.43388" lon="7.05188">
        <ele>1611.2075332</ele>
        <time>2020-07-10T12:45:45Z</time>
      </trkpt>
      <trkpt lat="44.43349" lon="7.05218">
        <ele>1599.20871952</ele>
        <time>2020-07-10T12:46:34Z</time>
      </trkpt>
      <trkpt lat="44.43351" lon="7.0528">
        <ele>1592.21120716</ele>
        <time>2020-07-10T12:47:53Z</time>
      </trkpt>
      <trkpt lat="44.43337" lon="7.05339">
        <ele>1575.2135652</ele>
        <time>2020-07-10T12:48:56Z</time>
      </trkpt>
      <trkpt lat="44.43314" lon="7.05389">
        <ele>1566.21554136</ele>
        <time>2020-07-10T12:49:25Z</time>
      </trkpt>
      <trkpt lat="44.43345" lon="7.05432">
        <ele>1557.2172754</ele>
        <time>2020-07-10T12:50:38Z</time>
      </trkpt>
      <trkpt lat="44.43383" lon="7.05464">
        <ele>1563.21855028</ele>
        <time>2020-07-10T12:51:08Z</time>
      </trkpt>
      <trkpt lat="44.43423" lon="7.05491">
        <ele>1551.21965324</ele>
        <time>2020-07-10T12:51:55Z</time>
      </trkpt>
      <trkpt lat="44.43461" lon="7.05526">
        <ele>1561.22104672</ele>
        <time>2020-07-10T12:52:31Z</time>
      </trkpt>
      <trkpt lat="44.4349" lon="7.05574">
        <ele>1552.222943</ele>
        <time>2020-07-10T12:53:20Z</time>
      </trkpt>
      <trkpt lat="44.43519" lon="7.0562">
        <ele>1546.22481032</ele>
        <time>2020-07-10T12:54:06Z</time>
      </trkpt>
      <trkpt lat="44.43549" lon="7.05666">
        <ele>1542.22664052</ele>
        <time>2020-07-10T12:56:00Z</time>
      </trkpt>
      <trkpt lat="44.43547" lon="7.05667">
        <ele>1543.22667016</ele>
        <time>2020-07-10T12:57:48Z</time>
      </trkpt>
      <trkpt lat="44.43547" lon="7.05667">
        <ele>1543.22667016</ele>
        <time>2020-07-10T12:57:48Z</time>
      </trkpt>
    </trkseg>
  </trk>
</gpx>